Time;durP1;ratioP1;P1;durP2;ratioP2;P2;SDS_P1;SDS_P2;PMS_P1;PMS_P2;Temp;Humidity;BMP_temperature;BMP_pressure;BME280_temperature;BME280_humidity;BME280_pressure;Samples;Min_cycle;Max_cycle;Signal;HPM_P1;HPM_P2
2024/01/19 00:00:15;;;;;;;;;27.75;27.75;;;;;6.59;100.00;101098.78;2096710;28;45620;-66
2024/01/19 00:01:16;;;;;;;;;27.75;27.00;;;;;6.61;100.00;101104.97;2094668;28;45568;-66
2024/01/19 00:02:16;;;;;;;;;29.40;27.80;;;;;6.63;100.00;101108.50;2096619;28;46104;-66
2024/01/19 00:03:16;;;;;;;;;29.00;29.00;;;;;6.58;100.00;101104.94;2091565;28;45128;-66
2024/01/19 00:04:17;;;;;;;;;31.50;29.50;;;;;6.47;100.00;101106.69;2089837;28;46312;-66
2024/01/19 00:05:19;;;;;;;;;27.00;24.50;;;;;6.49;100.00;101116.38;2094338;28;46539;-65
2024/01/19 00:06:20;;;;;;;;;30.40;27.20;;;;;6.53;100.00;101113.75;2093830;28;46077;-66
2024/01/19 00:07:20;;;;;;;;;30.50;28.75;;;;;6.51;100.00;101110.25;2092443;28;46638;-66
2024/01/19 00:08:20;;;;;;;;;29.25;29.00;;;;;6.51;100.00;101107.59;2096277;28;46543;-67
2024/01/19 00:09:21;;;;;;;;;30.50;29.00;;;;;6.69;100.00;101118.16;2094374;28;46273;-67
2024/01/19 00:10:21;;;;;;;;;29.50;26.00;;;;;6.55;100.00;101120.78;2095188;28;46417;-66
2024/01/19 00:11:21;;;;;;;;;29.25;28.00;;;;;6.72;100.00;101116.38;2093516;28;46828;-67
2024/01/19 00:12:22;;;;;;;;;25.75;25.75;;;;;6.74;100.00;101121.69;2096440;28;46717;-66
2024/01/19 00:13:22;;;;;;;;;24.75;24.25;;;;;6.71;100.00;101121.66;2098011;28;47084;-66
2024/01/19 00:14:22;;;;;;;;;25.50;25.00;;;;;6.68;100.00;101124.31;2103752;28;46180;-66
2024/01/19 00:15:23;;;;;;;;;22.50;22.25;;;;;6.65;100.00;101124.31;2094315;28;45753;-65
2024/01/19 00:16:23;;;;;;;;;27.50;26.75;;;;;6.62;100.00;101121.69;2095705;28;45925;-65
2024/01/19 00:17:23;;;;;;;;;20.75;20.00;;;;;6.65;100.00;101126.94;2093943;28;46607;-66
2024/01/19 00:18:26;;;;;;;;;27.75;26.25;;;;;6.65;100.00;101129.59;2096636;28;45843;-65
2024/01/19 00:19:26;;;;;;;;;32.00;26.20;;;;;6.61;100.00;101127.84;2095074;28;47023;-65
2024/01/19 00:20:26;;;;;;;;;24.00;24.00;;;;;6.57;100.00;101129.56;2092542;28;46260;-66
2024/01/19 00:21:27;;;;;;;;;27.25;27.00;;;;;6.58;100.00;101130.44;2094677;28;46072;-65
2024/01/19 00:22:27;;;;;;;;;24.00;23.25;;;;;6.52;100.00;101123.41;2096402;28;46330;-66
2024/01/19 00:23:27;;;;;;;;;23.75;23.75;;;;;6.69;100.00;101132.22;2096047;28;46429;-66
2024/01/19 00:24:28;;;;;;;;;29.75;27.00;;;;;6.62;100.00;101134.88;2097868;28;46279;-67
2024/01/19 00:25:28;;;;;;;;;29.00;24.50;;;;;6.61;100.00;101133.97;2095858;28;46470;-66
2024/01/19 00:26:28;;;;;;;;;30.00;25.75;;;;;6.71;100.00;101132.22;2097916;28;46538;-65
2024/01/19 00:27:32;;;;;;;;;26.25;25.25;;;;;6.74;100.00;101132.25;2095671;28;46692;-66
2024/01/19 00:28:32;;;;;;;;;26.80;25.20;;;;;6.74;100.00;101132.25;2089202;28;46575;-66
2024/01/19 00:29:32;;;;;;;;;21.50;20.00;;;;;6.74;100.00;101135.75;2096144;28;46236;-66
2024/01/19 00:30:33;;;;;;;;;35.50;30.25;;;;;6.62;100.00;101138.38;2097554;28;46439;-63
2024/01/19 00:31:34;;;;;;;;;24.25;24.25;;;;;6.46;100.00;101142.72;2095510;28;46641;-66
2024/01/19 00:32:34;;;;;;;;;26.60;25.40;;;;;6.57;100.00;101134.84;2097464;28;46805;-66
2024/01/19 00:33:35;;;;;;;;;29.75;24.25;;;;;6.55;100.00;101135.72;2095704;28;45876;-67
2024/01/19 00:34:35;;;;;;;;;27.50;23.50;;;;;6.54;100.00;101136.59;2098271;28;46586;-66
2024/01/19 00:35:35;;;;;;;;;25.25;25.25;;;;;6.55;100.00;101144.50;2095890;28;46469;-64
2024/01/19 00:36:36;;;;;;;;;25.00;25.00;;;;;6.55;100.00;101144.50;2098053;28;45802;-66
2024/01/19 00:37:36;;;;;;;;;23.00;23.00;;;;;6.58;100.00;101144.50;2095155;28;45957;-66
2024/01/19 00:38:36;;;;;;;;;26.75;26.75;;;;;6.60;100.00;101144.50;2097803;28;46688;-66
2024/01/19 00:39:36;;;;;;;;;30.25;26.25;;;;;6.55;100.00;101141.00;2095705;28;45236;-66
2024/01/19 00:40:37;;;;;;;;;24.25;23.25;;;;;6.47;100.00;101138.34;2097935;28;45558;-66
2024/01/19 00:41:37;;;;;;;;;29.50;27.50;;;;;6.46;100.00;101149.75;2094923;28;46563;-66
2024/01/19 00:42:41;;;;;;;;;30.00;28.00;;;;;6.47;100.00;101144.47;2097263;28;46811;-66
2024/01/19 00:43:42;;;;;;;;;22.80;19.40;;;;;6.47;100.00;101146.25;2096660;28;46877;-66
2024/01/19 00:44:42;;;;;;;;;28.50;26.50;;;;;6.60;100.00;101145.38;2096900;28;46449;-66
2024/01/19 00:45:42;;;;;;;;;25.75;25.75;;;;;6.54;100.00;101148.03;2097319;28;46275;-66
2024/01/19 00:46:43;;;;;;;;;29.00;26.25;;;;;6.65;100.00;101151.56;2095985;28;47219;-66
2024/01/19 00:47:43;;;;;;;;;28.75;27.50;;;;;6.54;100.00;101150.66;2096045;28;46361;-65
2024/01/19 00:48:43;;;;;;;;;26.25;26.25;;;;;6.56;100.00;101158.56;2092066;28;46181;-66
2024/01/19 00:49:44;;;;;;;;;27.00;26.25;;;;;6.48;100.00;101158.56;2097182;28;46928;-65
2024/01/19 00:50:45;;;;;;;;;26.60;23.80;;;;;6.57;100.00;101158.56;2096240;28;46617;-67
2024/01/19 00:51:45;;;;;;;;;26.50;24.50;;;;;6.61;100.00;101159.47;2096744;28;45810;-67
2024/01/19 00:52:46;;;;;;;;;29.75;27.75;;;;;6.63;100.00;101158.59;2096227;28;46885;-66
2024/01/19 00:53:46;;;;;;;;;30.25;30.25;;;;;6.61;100.00;101157.72;2095881;28;46006;-65
2024/01/19 00:54:46;;;;;;;;;27.75;27.75;;;;;6.59;100.00;101161.22;2094879;28;46262;-65
2024/01/19 00:55:47;;;;;;;;;27.50;27.50;;;;;6.59;100.00;101161.22;2096869;28;45553;-65
2024/01/19 00:56:47;;;;;;;;;31.00;30.25;;;;;6.57;100.00;101168.25;2095431;28;46755;-65
2024/01/19 00:57:47;;;;;;;;;27.75;26.25;;;;;6.57;100.00;101166.47;2097116;28;45288;-66
2024/01/19 00:58:48;;;;;;;;;29.75;26.75;;;;;6.57;100.00;101160.31;2096250;28;46638;-66
2024/01/19 00:59:48;;;;;;;;;31.25;26.50;;;;;6.59;100.00;101164.72;2097956;28;46132;-66
2024/01/19 01:00:48;;;;;;;;;29.25;29.25;;;;;6.56;100.00;101164.72;2095860;28;46569;-65
2024/01/19 01:01:49;;;;;;;;;37.75;34.75;;;;;6.59;100.00;101164.72;2097854;28;45515;-66
2024/01/19 01:02:49;;;;;;;;;39.25;34.25;;;;;6.59;100.00;101158.56;2096060;28;45863;-65
2024/01/19 01:03:49;;;;;;;;;37.75;33.75;;;;;6.57;100.00;101163.84;2094661;28;46450;-66
2024/01/19 01:04:50;;;;;;;;;34.50;34.00;;;;;6.56;100.00;101156.81;2096432;28;47036;-66
2024/01/19 01:05:57;;;;;;;;;35.75;34.75;;;;;6.59;100.00;101154.16;2098472;28;45657;-66
2024/01/19 01:06:58;;;;;;;;;32.20;32.20;;;;;6.56;100.00;101155.94;2095405;28;46759;-66
2024/01/19 01:07:58;;;;;;;;;36.50;32.25;;;;;6.55;100.00;101157.69;2097616;28;46603;-66
2024/01/19 01:08:58;;;;;;;;;28.75;28.25;;;;;6.56;100.00;101162.09;2095777;28;46209;-67
2024/01/19 01:09:58;;;;;;;;;41.50;38.75;;;;;6.56;100.00;101166.47;2097692;28;46742;-66
2024/01/19 01:10:59;;;;;;;;;41.25;36.50;;;;;6.55;100.00;101162.97;2094799;28;47063;-66
2024/01/19 01:11:59;;;;;;;;;38.25;37.00;;;;;6.54;100.00;101168.25;2097484;28;45924;-67
2024/01/19 01:13:01;;;;;;;;;39.75;37.00;;;;;6.52;100.00;101168.25;2095981;28;45894;-66
2024/01/19 01:14:02;;;;;;;;;35.40;34.60;;;;;6.44;100.00;101170.84;2097147;28;45416;-66
2024/01/19 01:15:04;;;;;;;;;35.20;33.00;;;;;6.42;100.00;101179.63;2099717;28;46700;-66
2024/01/19 01:16:04;;;;;;;;;31.20;28.80;;;;;6.38;100.00;101180.50;2101178;28;45058;-66
2024/01/19 01:17:05;;;;;;;;;32.00;30.25;;;;;6.34;100.00;101178.72;2095471;28;46236;-65
2024/01/19 01:18:05;;;;;;;;;31.00;30.50;;;;;6.33;100.00;101180.47;2097183;28;47142;-66
2024/01/19 01:19:05;;;;;;;;;28.00;28.00;;;;;6.35;100.00;101183.13;2096525;28;46577;-66
2024/01/19 01:20:07;;;;;;;;;30.00;28.50;;;;;6.37;100.00;101182.28;2096430;28;45522;-66
2024/01/19 01:21:07;;;;;;;;;29.40;27.00;;;;;6.32;100.00;101188.38;2086545;28;46412;-66
2024/01/19 01:22:09;;;;;;;;;26.00;25.25;;;;;6.35;100.00;101178.75;2079580;28;46050;-66
2024/01/19 01:23:09;;;;;;;;;30.80;29.80;;;;;6.35;100.00;101185.75;2095297;28;46412;-65
2024/01/19 01:24:10;;;;;;;;;33.25;31.75;;;;;6.36;100.00;101188.41;2097387;28;46310;-66
2024/01/19 01:25:10;;;;;;;;;32.75;30.50;;;;;6.35;100.00;101184.03;2094148;28;44944;-65
2024/01/19 01:26:10;;;;;;;;;34.50;31.50;;;;;6.36;100.00;101184.91;2096500;28;46464;-66
2024/01/19 01:27:11;;;;;;;;;32.50;31.00;;;;;6.35;100.00;101191.94;2096139;28;46353;-65
2024/01/19 01:28:11;;;;;;;;;29.00;29.00;;;;;6.37;100.00;101191.94;2096993;28;46274;-66
2024/01/19 01:29:11;;;;;;;;;26.25;26.25;;;;;6.36;100.00;101192.81;2096220;28;46468;-67
2024/01/19 01:30:12;;;;;;;;;29.75;29.75;;;;;6.32;100.00;101199.81;2097674;28;46158;-66
2024/01/19 01:31:12;;;;;;;;;28.00;28.00;;;;;6.35;100.00;101199.84;2096297;28;46295;-66
2024/01/19 01:32:12;;;;;;;;;35.25;32.50;;;;;6.35;100.00;101206.84;2097486;28;46367;-66
2024/01/19 01:33:12;;;;;;;;;29.25;29.25;;;;;6.34;100.00;101205.09;2096202;28;46241;-65
2024/01/19 01:34:13;;;;;;;;;30.00;29.75;;;;;6.34;100.00;101205.09;2097226;28;46695;-65
2024/01/19 01:35:13;;;;;;;;;35.75;34.25;;;;;6.31;100.00;101219.13;2095487;28;45821;-65
2024/01/19 01:36:14;;;;;;;;;32.00;31.00;;;;;6.30;100.00;101219.13;2097530;28;46883;-66
2024/01/19 01:37:14;;;;;;;;;29.80;28.80;;;;;6.28;100.00;101218.25;2095451;28;46993;-65
2024/01/19 01:38:15;;;;;;;;;35.50;31.75;;;;;6.26;100.00;101215.63;2096579;28;46502;-67
2024/01/19 01:39:16;;;;;;;;;31.75;31.75;;;;;6.27;100.00;101222.66;2097326;28;46719;-66
2024/01/19 01:40:16;;;;;;;;;30.75;30.00;;;;;6.22;100.00;101220.84;2097424;28;46157;-66
2024/01/19 01:41:16;;;;;;;;;33.00;30.25;;;;;6.22;100.00;101219.09;2095939;28;46426;-65
2024/01/19 01:42:17;;;;;;;;;35.00;33.25;;;;;6.25;100.00;101219.13;2097209;28;46289;-65
2024/01/19 01:43:24;;;;;;;;;32.50;32.50;;;;;6.23;100.00;101220.88;2096716;28;46341;-65
2024/01/19 01:44:24;;;;;;;;;35.80;34.00;;;;;6.27;100.00;101219.13;2096607;28;46535;-66
2024/01/19 01:45:25;;;;;;;;;35.50;33.75;;;;;6.29;100.00;101217.38;2092668;28;47058;-65
2024/01/19 01:46:25;;;;;;;;;34.50;34.50;;;;;6.30;100.00;101220.00;2097895;28;45941;-65
2024/01/19 01:47:25;;;;;;;;;36.50;34.00;;;;;6.30;100.00;101225.28;2096286;28;46643;-65
2024/01/19 01:48:26;;;;;;;;;29.00;28.25;;;;;6.31;100.00;101220.91;2097558;28;47612;-65
2024/01/19 01:49:26;;;;;;;;;35.80;34.40;;;;;6.33;100.00;101224.41;2095837;28;46433;-65
2024/01/19 01:50:27;;;;;;;;;30.75;29.50;;;;;6.32;100.00;101225.28;2096378;28;46252;-65
2024/01/19 01:51:27;;;;;;;;;30.75;28.25;;;;;6.33;100.00;101216.50;2100469;28;45991;-66
2024/01/19 01:52:28;;;;;;;;;31.25;30.75;;;;;6.33;100.00;101227.03;2100050;28;46096;-65
2024/01/19 01:53:29;;;;;;;;;31.25;29.50;;;;;6.34;100.00;101228.81;2094656;28;46827;-65
2024/01/19 01:54:30;;;;;;;;;36.75;33.75;;;;;6.33;100.00;101227.03;2096237;28;46432;-66
2024/01/19 01:55:30;;;;;;;;;23.80;22.80;;;;;6.35;100.00;101230.56;2094418;28;46611;-65
2024/01/19 01:56:30;;;;;;;;;34.00;32.50;;;;;6.36;100.00;101230.59;2096775;28;45726;-65
2024/01/19 01:57:31;;;;;;;;;28.75;28.75;;;;;6.36;100.00;101229.72;2094958;28;46434;-65
2024/01/19 01:58:32;;;;;;;;;34.25;31.75;;;;;6.35;100.00;101230.56;2096423;28;45875;-65
2024/01/19 01:59:33;;;;;;;;;32.75;31.00;;;;;6.33;100.00;101224.41;2094738;28;46748;-66
2024/01/19 02:00:34;;;;;;;;;33.40;32.00;;;;;6.35;100.00;101220.03;2096317;28;46652;-65
2024/01/19 02:01:35;;;;;;;;;35.60;32.80;;;;;6.33;100.00;101225.28;2095549;28;45660;-66
2024/01/19 02:02:37;;;;;;;;;33.00;33.00;;;;;6.34;100.00;101227.06;2095695;28;45627;-65
2024/01/19 02:03:39;;;;;;;;;32.00;31.40;;;;;6.36;100.00;101225.31;2094246;28;46934;-65
2024/01/19 02:04:40;;;;;;;;;36.00;33.00;;;;;6.34;100.00;101227.06;2095792;28;45568;-66
2024/01/19 02:05:40;;;;;;;;;30.00;28.00;;;;;6.39;100.00;101227.09;2095226;28;46807;-65
2024/01/19 02:06:41;;;;;;;;;36.25;34.00;;;;;6.36;100.00;101235.00;2095652;28;45774;-65
2024/01/19 02:07:41;;;;;;;;;37.50;34.25;;;;;6.35;100.00;101226.19;2095827;28;45706;-66
2024/01/19 02:08:42;;;;;;;;;35.00;33.75;;;;;6.36;100.00;101229.72;2095438;28;46788;-66
2024/01/19 02:09:42;;;;;;;;;35.25;35.25;;;;;6.35;100.00;101235.84;2094224;28;46680;-66
2024/01/19 02:10:43;;;;;;;;;34.75;34.75;;;;;6.35;100.00;101233.19;2095244;28;46391;-66
2024/01/19 02:11:44;;;;;;;;;31.50;31.00;;;;;6.37;100.00;101236.75;2095826;28;45483;-65
2024/01/19 02:12:44;;;;;;;;;30.20;28.00;;;;;6.37;100.00;101237.63;2094696;28;45726;-66
2024/01/19 02:13:45;;;;;;;;;32.50;32.50;;;;;6.37;100.00;101239.38;2095404;28;45608;-66
2024/01/19 02:14:45;;;;;;;;;42.25;37.00;;;;;6.36;100.00;101240.25;2094953;28;45611;-65
2024/01/19 02:15:45;;;;;;;;;37.25;34.00;;;;;6.35;100.00;101238.47;2087797;28;47004;-65
2024/01/19 02:16:46;;;;;;;;;33.25;30.25;;;;;6.35;100.00;101241.09;2086673;28;46725;-66
2024/01/19 02:17:47;;;;;;;;;34.25;34.25;;;;;6.34;100.00;101240.22;2096165;28;46232;-66
2024/01/19 02:18:47;;;;;;;;;35.00;35.00;;;;;6.32;100.00;101243.75;2094863;28;46651;-65
2024/01/19 02:19:48;;;;;;;;;30.25;29.00;;;;;6.32;100.00;101244.63;2095062;28;47574;-66
2024/01/19 02:20:48;;;;;;;;;35.75;35.00;;;;;6.33;100.00;101248.13;2094544;28;47034;-65
2024/01/19 02:21:49;;;;;;;;;35.25;32.75;;;;;6.31;100.00;101248.13;2095621;28;46252;-66
2024/01/19 02:22:49;;;;;;;;;35.00;32.50;;;;;6.30;100.00;101254.28;2087528;28;45224;-65
2024/01/19 02:23:59;;;;;;;;;31.00;30.50;;;;;6.33;100.00;101243.75;2091331;28;46444;-67
2024/01/19 02:24:59;;;;;;;;;33.40;31.40;;;;;6.33;100.00;101243.75;2094511;28;47136;-65
2024/01/19 02:25:59;;;;;;;;;29.75;27.25;;;;;6.30;100.00;101248.13;2095764;28;45683;-65
2024/01/19 02:27:01;;;;;;;;;37.75;35.50;;;;;6.29;100.00;101243.72;2095457;28;46670;-66
2024/01/19 02:28:03;;;;;;;;;31.20;31.20;;;;;6.26;100.00;101249.00;2097031;28;47097;-66
2024/01/19 02:29:04;;;;;;;;;31.80;31.00;;;;;6.27;100.00;101245.50;2095368;28;46326;-66
2024/01/19 02:30:11;;;;;;;;;33.80;33.40;;;;;6.28;100.00;101252.53;2096654;28;46604;-66
2024/01/19 02:31:11;;;;;;;;;41.20;36.20;;;;;6.25;100.00;101256.03;2094176;28;46540;-66
2024/01/19 02:32:11;;;;;;;;;41.00;34.00;;;;;6.27;100.00;101243.72;2097408;28;46284;-66
2024/01/19 02:33:12;;;;;;;;;33.75;33.75;;;;;6.28;100.00;101252.53;2094750;28;46235;-66
2024/01/19 02:34:12;;;;;;;;;32.25;32.00;;;;;6.31;100.00;101252.53;2097490;28;46571;-66
2024/01/19 02:35:13;;;;;;;;;33.75;29.75;;;;;6.33;100.00;101253.41;2095829;28;46689;-66
2024/01/19 02:36:13;;;;;;;;;33.25;33.25;;;;;6.31;100.00;101247.25;2096964;28;46242;-66
2024/01/19 02:37:14;;;;;;;;;33.00;33.00;;;;;6.29;100.00;101257.78;2095216;28;45266;-65
2024/01/19 02:38:14;;;;;;;;;39.25;35.50;;;;;6.30;100.00;101250.75;2090553;28;46798;-66
2024/01/19 02:39:15;;;;;;;;;37.25;36.75;;;;;6.30;100.00;101251.66;2093888;28;46811;-65
2024/01/19 02:40:16;;;;;;;;;35.60;32.20;;;;;6.31;100.00;101252.53;2096635;28;46121;-64
2024/01/19 02:41:16;;;;;;;;;37.00;35.75;;;;;6.36;100.00;101246.41;2094833;28;45835;-65
2024/01/19 02:42:16;;;;;;;;;37.50;34.00;;;;;6.33;100.00;101242.84;2096012;28;46223;-65
2024/01/19 02:43:17;;;;;;;;;37.00;33.75;;;;;6.33;100.00;101253.41;2095671;28;46002;-65
2024/01/19 02:44:17;;;;;;;;;35.00;35.00;;;;;6.32;100.00;101256.91;2096972;28;46320;-65
2024/01/19 02:45:17;;;;;;;;;34.25;33.25;;;;;6.41;100.00;101255.22;2096338;28;45105;-65
2024/01/19 02:46:20;;;;;;;;;38.50;36.25;;;;;6.38;100.00;101254.31;2095903;28;45863;-65
2024/01/19 02:47:21;;;;;;;;;36.40;35.80;;;;;6.36;100.00;101251.69;2095321;28;46771;-65
2024/01/19 02:48:21;;;;;;;;;33.25;30.75;;;;;6.36;100.00;101250.81;2095610;28;45675;-66
2024/01/19 02:49:21;;;;;;;;;33.25;31.50;;;;;6.37;100.00;101255.19;2090203;28;46486;-66
2024/01/19 02:50:22;;;;;;;;;36.50;36.25;;;;;6.36;100.00;101262.22;2104025;28;47167;-66
2024/01/19 02:51:22;;;;;;;;;30.50;30.50;;;;;6.36;100.00;101262.22;2094287;28;45431;-67
2024/01/19 02:52:22;;;;;;;;;29.00;28.50;;;;;6.36;100.00;101264.00;2097223;28;45752;-67
2024/01/19 02:53:23;;;;;;;;;32.00;32.00;;;;;6.34;100.00;101263.94;2092627;28;46769;-67
2024/01/19 02:54:23;;;;;;;;;30.25;30.25;;;;;6.32;100.00;101260.44;2094464;28;45225;-66
2024/01/19 02:55:23;;;;;;;;;32.50;32.50;;;;;6.36;100.00;101261.34;2096044;28;46674;-66
2024/01/19 02:56:24;;;;;;;;;36.50;33.00;;;;;6.36;100.00;101267.50;2096181;28;46327;-66
2024/01/19 02:57:24;;;;;;;;;31.75;31.75;;;;;6.36;100.00;101266.63;2093883;28;46345;-66
2024/01/19 02:58:24;;;;;;;;;35.25;35.25;;;;;6.32;100.00;101264.81;2093637;28;46625;-66
2024/01/19 02:59:25;;;;;;;;;35.75;34.75;;;;;6.31;100.00;101268.34;2095367;28;46416;-67
2024/01/19 03:00:25;;;;;;;;;38.00;35.25;;;;;6.29;100.00;101273.59;2095302;28;45897;-66
2024/01/19 03:01:25;;;;;;;;;34.00;33.00;;;;;6.27;100.00;101269.22;2095936;28;46558;-66
2024/01/19 03:02:25;;;;;;;;;35.00;33.75;;;;;6.28;100.00;101265.69;2096576;28;46499;-67
2024/01/19 03:03:26;;;;;;;;;36.50;31.25;;;;;6.33;100.00;101262.19;2096767;28;46149;-67
2024/01/19 03:04:26;;;;;;;;;31.25;30.75;;;;;6.40;100.00;101253.44;2096055;28;45941;-67
2024/01/19 03:05:26;;;;;;;;;38.75;35.00;;;;;6.41;100.00;101254.34;2095807;28;46454;-65
2024/01/19 03:06:27;;;;;;;;;39.00;36.50;;;;;6.35;100.00;101252.56;2097076;28;46209;-66
2024/01/19 03:07:27;;;;;;;;;3.75;1.25;;;;;6.36;100.00;101256.97;2095428;28;46309;-66
2024/01/19 03:08:28;;;;;;;;;37.50;34.00;;;;;6.34;100.00;101252.53;2096607;28;46444;-66
2024/01/19 03:09:28;;;;;;;;;35.25;34.00;;;;;6.31;100.00;101250.75;2095139;28;47364;-65
2024/01/19 03:10:28;;;;;;;;;37.25;36.00;;;;;6.29;100.00;101252.53;2094097;28;46139;-66
2024/01/19 03:11:29;;;;;;;;;35.00;33.25;;;;;6.26;100.00;101251.63;2095284;28;45614;-66
2024/01/19 03:12:29;;;;;;;;;34.50;34.00;;;;;6.30;100.00;101254.28;2097456;28;45524;-66
2024/01/19 03:13:29;;;;;;;;;33.25;33.25;;;;;6.27;100.00;101254.28;2094933;28;46643;-66
2024/01/19 03:14:32;;;;;;;;;43.00;35.00;;;;;6.28;100.00;101256.03;2096440;28;45896;-66
2024/01/19 03:15:33;;;;;;;;;34.00;33.20;;;;;6.25;100.00;101261.31;2094131;28;45854;-65
2024/01/19 03:16:33;;;;;;;;;35.00;30.75;;;;;6.25;100.00;101258.66;2097165;28;46965;-66
2024/01/19 03:17:33;;;;;;;;;35.00;35.00;;;;;6.22;100.00;101258.63;2095422;28;45817;-67
2024/01/19 03:18:34;;;;;;;;;35.75;33.25;;;;;6.22;100.00;101263.00;2103421;27;45800;-66
2024/01/19 03:19:34;;;;;;;;;35.50;35.50;;;;;6.33;100.00;101266.59;2102928;27;46410;-66
2024/01/19 03:20:34;;;;;;;;;35.00;34.25;;;;;6.26;100.00;101267.44;2104197;28;46609;-66
2024/01/19 03:21:35;;;;;;;;;40.25;36.50;;;;;6.20;100.00;101263.91;2102226;28;46669;-66
2024/01/19 03:22:36;;;;;;;;;35.60;33.40;;;;;6.18;100.00;101270.91;2102445;28;46142;-65
2024/01/19 03:23:36;;;;;;;;;37.25;36.50;;;;;6.18;100.00;101272.66;2102462;28;46900;-66
2024/01/19 03:24:37;;;;;;;;;35.50;35.50;;;;;6.19;100.00;101275.31;2104340;27;46740;-66
2024/01/19 03:25:37;;;;;;;;;35.50;35.50;;;;;6.18;100.00;101267.41;2101751;28;46779;-65
2024/01/19 03:26:39;;;;;;;;;34.50;33.00;;;;;6.18;100.00;101270.91;2105237;27;46754;-65
2024/01/19 03:27:39;;;;;;;;;39.40;34.60;;;;;6.18;100.00;101270.03;2103351;28;46981;-66
2024/01/19 03:28:40;;;;;;;;;35.25;33.25;;;;;6.19;100.00;101272.66;2103597;27;45559;-65
2024/01/19 03:29:40;;;;;;;;;38.75;37.00;;;;;6.18;100.00;101281.44;2087004;28;46756;-65
2024/01/19 03:30:40;;;;;;;;;37.25;36.25;;;;;6.18;100.00;101278.81;2085963;28;46797;-65
2024/01/19 03:31:40;;;;;;;;;35.75;35.25;;;;;6.18;100.00;101278.81;2102310;28;46309;-66
2024/01/19 03:32:41;;;;;;;;;36.50;35.00;;;;;6.17;100.00;101278.81;2101088;28;46486;-65
2024/01/19 03:33:41;;;;;;;;;38.75;37.75;;;;;6.16;100.00;101277.06;2103417;28;46331;-64
2024/01/19 03:34:42;;;;;;;;;37.50;36.75;;;;;6.16;100.00;101283.22;2103281;27;46136;-65
2024/01/19 03:35:42;;;;;;;;;37.25;36.25;;;;;6.15;100.00;101275.28;2103557;28;46290;-64
2024/01/19 03:36:42;;;;;;;;;32.25;30.75;;;;;6.16;100.00;101279.69;2103001;27;46708;-65
2024/01/19 03:37:43;;;;;;;;;41.25;33.50;;;;;6.16;100.00;101274.41;2103447;28;45574;-65
2024/01/19 03:38:43;;;;;;;;;34.50;32.25;;;;;6.20;100.00;101287.59;2101974;27;46621;-66
2024/01/19 03:39:43;;;;;;;;;37.00;36.00;;;;;6.20;100.00;101281.47;2104624;28;46384;-65
2024/01/19 03:40:44;;;;;;;;;41.25;36.75;;;;;6.18;100.00;101276.19;2099446;27;46608;-66
2024/01/19 03:41:44;;;;;;;;;43.25;38.00;;;;;6.18;100.00;101281.44;2103316;28;47284;-65
2024/01/19 03:42:44;;;;;;;;;43.00;39.00;;;;;6.18;100.00;101281.44;2103417;28;46437;-65
2024/01/19 03:43:45;;;;;;;;;39.50;36.00;;;;;6.16;100.00;101280.56;2103854;28;46258;-65
2024/01/19 03:44:45;;;;;;;;;38.50;36.00;;;;;6.17;100.00;101290.25;2104690;27;45163;-66
2024/01/19 03:45:46;;;;;;;;;37.50;36.75;;;;;6.17;100.00;101292.88;2104458;28;46011;-66
2024/01/19 03:46:46;;;;;;;;;39.20;36.60;;;;;6.17;100.00;101287.59;2101575;27;46544;-66
2024/01/19 03:47:47;;;;;;;;;38.25;35.50;;;;;6.20;100.00;101292.00;2103852;28;46312;-64
2024/01/19 03:48:47;;;;;;;;;36.00;35.75;;;;;6.22;100.00;101292.88;2101051;27;46318;-65
2024/01/19 03:49:47;;;;;;;;;36.25;32.75;;;;;6.16;100.00;101292.88;2103699;27;45589;-65
2024/01/19 03:50:48;;;;;;;;;37.50;35.50;;;;;6.25;100.00;101290.28;2102198;27;46398;-65
2024/01/19 03:51:57;;;;;;;;;41.75;37.50;;;;;6.18;100.00;101289.34;2095312;28;46636;-65
2024/01/19 03:52:57;;;;;;;;;38.00;36.80;;;;;6.12;100.00;101285.81;2095772;28;45675;-65
2024/01/19 03:53:57;;;;;;;;;41.25;38.00;;;;;6.13;100.00;101298.13;2103989;28;46463;-64
2024/01/19 03:54:58;;;;;;;;;38.25;37.25;;;;;6.14;100.00;101294.63;2102800;27;46617;-64
2024/01/19 03:55:58;;;;;;;;;34.50;33.50;;;;;6.20;100.00;101294.63;2095812;28;45593;-66
2024/01/19 03:57:03;;;;;;;;;38.50;35.25;;;;;6.14;100.00;101305.16;2094907;28;46363;-65
2024/01/19 03:58:03;;;;;;;;;30.80;28.80;;;;;6.16;100.00;101300.78;2096192;28;47177;-65
2024/01/19 03:59:04;;;;;;;;;36.00;34.75;;;;;6.16;100.00;101296.38;2095135;28;45866;-66
2024/01/19 04:00:05;;;;;;;;;37.00;35.00;;;;;6.15;100.00;101299.00;2096414;28;46756;-66
2024/01/19 04:01:06;;;;;;;;;42.40;36.60;;;;;6.13;100.00;101300.75;2092484;28;45737;-66
2024/01/19 04:02:06;;;;;;;;;39.50;36.50;;;;;6.18;100.00;101309.56;2094743;28;46489;-65
2024/01/19 04:03:06;;;;;;;;;38.00;32.25;;;;;6.21;100.00;101304.31;2096520;28;46693;-65
2024/01/19 04:04:07;;;;;;;;;42.25;36.00;;;;;6.20;100.00;101308.69;2096414;28;46536;-65
2024/01/19 04:05:07;;;;;;;;;37.00;35.25;;;;;6.18;100.00;101302.53;2094217;28;46538;-66
2024/01/19 04:06:07;;;;;;;;;38.00;36.25;;;;;6.16;100.00;101304.28;2096218;28;46220;-65
2024/01/19 04:07:08;;;;;;;;;38.50;37.50;;;;;6.16;100.00;101306.94;2094719;28;46330;-66
2024/01/19 04:08:08;;;;;;;;;37.75;34.50;;;;;6.15;100.00;101314.81;2096883;28;45060;-66
2024/01/19 04:09:09;;;;;;;;;37.00;33.25;;;;;6.15;100.00;101310.44;2095493;28;46178;-66
2024/01/19 04:10:09;;;;;;;;;35.75;34.50;;;;;6.14;100.00;101308.69;2090219;28;46119;-66
2024/01/19 04:11:09;;;;;;;;;37.25;35.25;;;;;6.14;100.00;101310.44;2092109;28;46514;-65
2024/01/19 04:12:14;;;;;;;;;34.25;34.25;;;;;6.17;100.00;101313.06;2087708;28;46363;-65
2024/01/19 04:13:14;;;;;;;;;34.80;34.40;;;;;6.15;100.00;101313.06;2095207;28;46060;-65
2024/01/19 04:14:15;;;;;;;;;37.00;36.50;;;;;6.16;100.00;101314.84;2096402;28;46643;-66
2024/01/19 04:15:15;;;;;;;;;41.00;35.50;;;;;6.18;100.00;101318.34;2095362;28;46424;-66
2024/01/19 04:16:16;;;;;;;;;41.00;37.25;;;;;6.18;100.00;101315.72;2096425;28;46257;-66
2024/01/19 04:17:16;;;;;;;;;38.25;36.25;;;;;6.19;100.00;101316.59;2093576;28;46491;-66
2024/01/19 04:18:16;;;;;;;;;34.75;34.00;;;;;6.19;100.00;101319.22;2092878;28;46622;-66
2024/01/19 04:19:17;;;;;;;;;35.75;35.50;;;;;6.16;100.00;101316.59;2094682;28;46231;-66
2024/01/19 04:20:17;;;;;;;;;37.00;35.25;;;;;6.15;100.00;101320.09;2095945;28;46251;-66
2024/01/19 04:21:17;;;;;;;;;39.50;37.00;;;;;6.16;100.00;101319.22;2095788;28;46382;-66
2024/01/19 04:22:17;;;;;;;;;36.25;33.00;;;;;6.13;100.00;101320.09;2095175;28;45660;-65
2024/01/19 04:23:19;;;;;;;;;38.50;36.25;;;;;6.14;100.00;101316.59;2094415;28;46831;-66
2024/01/19 04:24:19;;;;;;;;;30.40;29.20;;;;;6.16;100.00;101316.59;2095068;28;46591;-65
2024/01/19 04:25:19;;;;;;;;;37.75;36.25;;;;;6.15;100.00;101322.72;2093759;28;47439;-65
2024/01/19 04:26:20;;;;;;;;;38.50;36.00;;;;;6.16;100.00;101317.47;2096534;28;46721;-66
2024/01/19 04:27:20;;;;;;;;;42.50;39.00;;;;;6.17;100.00;101321.88;2094740;28;46969;-66
2024/01/19 04:28:20;;;;;;;;;37.25;36.50;;;;;6.18;100.00;101326.25;2096761;28;46121;-66
2024/01/19 04:29:21;;;;;;;;;45.75;38.25;;;;;6.18;100.00;101325.38;2096137;28;47089;-65
2024/01/19 04:30:21;;;;;;;;;39.25;36.25;;;;;6.16;100.00;101327.13;2096316;28;45987;-66
2024/01/19 04:31:22;;;;;;;;;40.00;37.00;;;;;6.16;100.00;101327.13;2094933;28;46275;-66
2024/01/19 04:32:23;;;;;;;;;37.80;36.20;;;;;6.13;100.00;101328.00;2094736;28;46315;-66
2024/01/19 04:33:23;;;;;;;;;40.00;37.75;;;;;6.11;100.00;101327.09;2094625;28;46301;-66
2024/01/19 04:34:23;;;;;;;;;40.75;38.50;;;;;6.08;100.00;101328.81;2096568;28;46719;-66
2024/01/19 04:35:23;;;;;;;;;40.50;38.25;;;;;6.07;100.00;101325.31;2095366;28;45488;-66